Time;durP1;ratioP1;P1;durP2;ratioP2;P2;SDS_P1;SDS_P2;PMS_P1;PMS_P2;Temp;Humidity;BMP_temperature;BMP_pressure;BME280_temperature;BME280_humidity;BME280_pressure;Samples;Min_cycle;Max_cycle;Signal;HPM_P1;HPM_P2
2022/07/30 00:00:06;;;;;;;3.08;2.42;;;21.60;99.90;;;;;;7389704;19;20133;-73
2022/07/30 00:02:32;;;;;;;2.60;2.40;;;21.60;99.90;;;;;;7391930;19;20133;-74
2022/07/30 00:04:58;;;;;;;2.45;2.22;;;21.90;99.90;;;;;;7390009;19;20507;-73
2022/07/30 00:07:24;;;;;;;4.30;2.47;;;21.90;99.90;;;;;;7386868;19;20146;-73
2022/07/30 00:09:50;;;;;;;4.50;2.53;;;21.90;99.90;;;;;;7388313;19;20127;-72
2022/07/30 00:12:15;;;;;;;3.58;2.55;;;22.10;99.90;;;;;;7390824;19;20243;-72
2022/07/30 00:14:41;;;;;;;3.85;2.83;;;22.10;99.90;;;;;;7387792;19;20153;-73
2022/07/30 00:17:07;;;;;;;4.47;2.60;;;22.10;99.90;;;;;;7389567;19;20146;-72
2022/07/30 00:19:33;;;;;;;3.55;2.78;;;21.90;99.90;;;;;;7382800;19;20154;-73
2022/07/30 00:21:59;;;;;;;2.85;2.60;;;21.90;99.90;;;;;;7390082;19;20173;-73
2022/07/30 00:24:24;;;;;;;2.95;2.67;;;22.10;99.90;;;;;;7385266;19;20640;-73
2022/07/30 00:26:50;;;;;;;5.15;3.00;;;22.10;99.90;;;;;;7387732;19;20154;-72
2022/07/30 00:29:16;;;;;;;6.15;2.85;;;22.10;99.90;;;;;;7389442;19;20194;-72
2022/07/30 00:31:42;;;;;;;3.25;2.88;;;22.10;99.90;;;;;;7388766;19;20158;-73
2022/07/30 00:34:07;;;;;;;4.35;2.85;;;21.90;99.90;;;;;;7380442;19;20145;-72
2022/07/30 00:36:33;;;;;;;2.70;2.50;;;21.90;99.90;;;;;;7389742;19;20667;-72
2022/07/30 00:38:59;;;;;;;3.80;2.25;;;22.00;99.90;;;;;;7386355;19;20138;-72
2022/07/30 00:41:25;;;;;;;4.38;2.20;;;21.90;99.90;;;;;;7398029;19;20146;-73
2022/07/30 00:43:51;;;;;;;3.08;2.15;;;22.00;99.90;;;;;;7398130;19;20146;-74
2022/07/30 00:46:17;;;;;;;2.40;2.20;;;22.10;99.90;;;;;;7391307;19;20145;-72
2022/07/30 00:48:42;;;;;;;5.50;2.33;;;22.10;99.90;;;;;;7395291;19;20123;-72
2022/07/30 00:51:09;;;;;;;2.58;2.15;;;22.10;99.90;;;;;;7394080;19;20127;-72
2022/07/30 00:53:35;;;;;;;2.78;2.33;;;22.00;99.90;;;;;;7395340;19;20198;-72
2022/07/30 00:56:01;;;;;;;3.20;2.38;;;22.00;99.90;;;;;;7391335;19;20155;-72
2022/07/30 00:58:27;;;;;;;3.13;2.53;;;22.00;99.90;;;;;;7396172;19;20500;-74
2022/07/30 01:00:53;;;;;;;6.00;2.55;;;21.90;99.90;;;;;;7395070;19;20146;-73
2022/07/30 01:03:19;;;;;;;2.47;2.25;;;21.80;99.90;;;;;;7393690;19;20142;-72
2022/07/30 01:05:45;;;;;;;6.18;2.55;;;21.90;99.90;;;;;;7392688;19;20162;-73
2022/07/30 01:08:11;;;;;;;3.42;2.67;;;21.90;99.90;;;;;;7392163;19;20134;-73
2022/07/30 01:10:37;;;;;;;5.63;2.28;;;21.80;99.90;;;;;;7394174;19;20127;-72
2022/07/30 01:13:04;;;;;;;2.97;2.67;;;21.90;99.90;;;;;;7393281;19;20134;-71
2022/07/30 01:15:30;;;;;;;2.53;2.33;;;21.90;99.90;;;;;;7391835;19;20154;-74
2022/07/30 01:18:00;;;;;;;2.70;2.45;;;22.00;99.90;;;;;;7394571;19;20518;-73
2022/07/30 01:20:42;;;;;;;3.45;2.67;;;22.00;99.90;;;;;;7393260;19;20134;-73
2022/07/30 01:23:22;;;;;;;3.85;2.45;;;22.00;99.90;;;;;;7392974;19;20150;-71
2022/07/30 01:25:53;;;;;;;2.67;2.47;;;21.90;99.90;;;;;;7392920;19;20606;-73
2022/07/30 01:28:24;;;;;;;4.50;2.60;;;21.80;99.90;;;;;;7396845;19;20222;-72
2022/07/30 01:30:52;;;;;;;3.55;2.70;;;21.80;99.90;;;;;;7392698;19;20151;-72
2022/07/30 01:33:21;;;;;;;3.28;2.55;;;21.80;99.90;;;;;;7392510;19;20146;-71
2022/07/30 01:35:49;;;;;;;2.90;2.40;;;21.90;99.90;;;;;;7391427;19;20155;-72
2022/07/30 01:38:20;;;;;;;2.35;2.15;;;22.00;99.90;;;;;;7390984;19;20143;-73
2022/07/30 01:40:48;;;;;;;5.95;2.38;;;22.00;99.90;;;;;;7393594;19;20141;-72
2022/07/30 01:43:15;;;;;;;2.22;1.95;;;21.90;99.90;;;;;;7393157;19;20146;-72
2022/07/30 01:45:42;;;;;;;3.88;2.55;;;21.90;99.90;;;;;;7391032;19;20147;-73
2022/07/30 01:48:09;;;;;;;3.10;2.33;;;22.00;99.90;;;;;;7391573;19;20126;-73
2022/07/30 01:50:37;;;;;;;3.47;2.80;;;22.10;99.90;;;;;;7392385;19;20780;-72
2022/07/30 01:53:04;;;;;;;3.80;1.95;;;22.10;99.90;;;;;;7392299;19;20180;-72
2022/07/30 01:55:34;;;;;;;3.00;2.45;;;22.20;99.90;;;;;;7388841;19;20153;-71
2022/07/30 01:58:02;;;;;;;3.75;2.75;;;22.20;99.90;;;;;;7392011;19;20612;-73
2022/07/30 02:00:29;;;;;;;6.13;2.70;;;22.10;99.90;;;;;;7391049;19;20169;-72
2022/07/30 02:02:56;;;;;;;5.75;2.38;;;22.00;99.90;;;;;;7391282;19;20177;-72
2022/07/30 02:05:23;;;;;;;4.93;2.38;;;21.90;99.90;;;;;;7391515;19;20139;-72
2022/07/30 02:07:57;;;;;;;4.78;2.10;;;21.90;99.90;;;;;;7390198;19;20152;-73
2022/07/30 02:10:32;;;;;;;3.33;2.50;;;21.70;99.90;;;;;;7390347;19;20138;-74
2022/07/30 02:13:01;;;;;;;3.65;2.65;;;21.80;99.90;;;;;;7391971;19;20153;-71
2022/07/30 02:15:55;;;;;;;2.53;2.15;;;21.70;99.90;;;;;;7389328;19;20245;-72
2022/07/30 02:18:45;;;;;;;2.40;2.13;;;21.60;99.90;;;;;;7392121;19;20165;-73
2022/07/30 02:21:11;;;;;;;2.20;2.00;;;21.50;99.90;;;;;;7388037;19;20154;-72
2022/07/30 02:23:40;;;;;;;3.55;2.10;;;21.50;99.90;;;;;;7391845;19;20135;-73
2022/07/30 02:26:08;;;;;;;3.65;2.00;;;21.60;99.90;;;;;;7386665;19;20261;-73
2022/07/30 02:28:40;;;;;;;2.70;1.98;;;21.60;99.90;;;;;;7392392;19;20441;-73
2022/07/30 02:31:10;;;;;;;2.90;2.10;;;21.70;99.90;;;;;;7388919;19;20138;-72
2022/07/30 02:33:42;;;;;;;5.93;2.58;;;21.80;99.90;;;;;;7389209;19;20596;-79
2022/07/30 02:36:09;;;;;;;7.25;2.35;;;21.70;99.90;;;;;;7387059;19;20139;-75
2022/07/30 02:38:40;;;;;;;3.22;2.35;;;21.70;99.90;;;;;;7391125;19;20138;-78
2022/07/30 02:41:08;;;;;;;2.47;2.28;;;21.50;99.90;;;;;;7393153;19;20141;-79
2022/07/30 02:43:36;;;;;;;3.72;2.30;;;21.40;99.90;;;;;;7385007;19;20525;-79
2022/07/30 02:46:03;;;;;;;2.53;2.33;;;21.10;99.90;;;;;;7390456;19;20139;-78
2022/07/30 02:48:30;;;;;;;3.97;2.55;;;21.00;99.90;;;;;;7391877;19;20494;-80
2022/07/30 02:50:59;;;;;;;2.50;2.08;;;21.00;99.90;;;;;;7391397;19;20135;-76
2022/07/30 02:53:27;;;;;;;3.47;2.05;;;21.00;99.90;;;;;;7390584;19;20147;-79
2022/07/30 02:55:55;;;;;;;2.90;2.38;;;20.80;99.90;;;;;;7385830;19;20146;-78
2022/07/30 02:58:24;;;;;;;2.53;2.30;;;20.80;99.90;;;;;;7390513;19;20141;-78
2022/07/30 03:00:52;;;;;;;2.92;2.10;;;20.90;99.90;;;;;;7385607;19;20137;-79
2022/07/30 03:03:20;;;;;;;6.18;2.33;;;21.10;99.90;;;;;;7387091;19;20134;-78
2022/07/30 03:05:50;;;;;;;4.20;2.20;;;21.10;99.90;;;;;;7387405;19;20152;-77
2022/07/30 03:08:16;;;;;;;2.55;2.00;;;21.10;99.90;;;;;;7390007;19;20222;-79
2022/07/30 03:10:43;;;;;;;2.25;2.03;;;21.30;99.90;;;;;;7390208;19;20130;-79
2022/07/30 03:13:11;;;;;;;6.50;2.72;;;21.40;99.90;;;;;;7390812;19;20139;-79
2022/07/30 03:15:42;;;;;;;4.47;2.58;;;21.40;99.90;;;;;;7390853;19;20218;-79
2022/07/30 03:18:12;;;;;;;4.25;2.47;;;21.50;99.90;;;;;;7390909;19;20458;-79
2022/07/30 03:20:38;;;;;;;5.05;2.30;;;21.30;99.90;;;;;;7387309;19;20133;-79
2022/07/30 03:23:06;;;;;;;3.47;2.22;;;21.20;99.90;;;;;;7387719;19;20134;-78
2022/07/30 03:25:34;;;;;;;10.73;3.20;;;21.30;99.90;;;;;;7387301;19;20134;-78
2022/07/30 03:28:02;;;;;;;8.98;3.13;;;21.50;99.90;;;;;;7390499;19;20619;-78
2022/07/30 03:30:29;;;;;;;9.90;3.08;;;21.50;99.90;;;;;;7385131;19;20131;-77
2022/07/30 03:32:56;;;;;;;6.10;3.63;;;21.50;99.90;;;;;;7388391;19;20139;-78
2022/07/30 03:35:26;;;;;;;6.93;2.95;;;21.40;99.90;;;;;;7386571;19;20138;-78
2022/07/30 03:37:53;;;;;;;6.53;3.03;;;21.20;99.90;;;;;;7388036;19;20130;-78
2022/07/30 03:40:20;;;;;;;4.15;2.25;;;21.30;99.90;;;;;;7384979;19;20174;-78
2022/07/30 03:42:47;;;;;;;2.95;2.35;;;21.20;99.90;;;;;;7387434;19;20157;-77
2022/07/30 03:45:13;;;;;;;2.92;2.25;;;21.00;99.90;;;;;;7391118;19;20150;-76
2022/07/30 03:47:41;;;;;;;4.78;2.47;;;21.00;99.90;;;;;;7389540;19;20605;-76
2022/07/30 03:50:08;;;;;;;3.40;2.30;;;21.10;99.90;;;;;;7389266;19;20171;-76
2022/07/30 03:52:37;;;;;;;2.90;2.13;;;21.00;99.90;;;;;;7386268;19;20508;-78
2022/07/30 03:55:10;;;;;;;2.05;1.85;;;21.00;99.90;;;;;;7389791;19;20613;-78
2022/07/30 03:57:36;;;;;;;4.22;2.75;;;20.90;99.90;;;;;;7388975;19;20131;-78
2022/07/30 04:00:13;;;;;;;3.50;2.17;;;20.80;99.90;;;;;;7386107;19;20586;-78
2022/07/30 04:02:44;;;;;;;3.10;1.90;;;20.90;99.90;;;;;;7390009;19;20225;-76
2022/07/30 04:05:11;;;;;;;2.90;2.40;;;20.90;99.90;;;;;;7386509;19;20150;-78
2022/07/30 04:07:37;;;;;;;3.08;2.15;;;20.90;99.90;;;;;;7387668;19;20154;-79
2022/07/30 04:10:03;;;;;;;3.75;2.15;;;21.00;99.90;;;;;;7387719;19;20162;-78
2022/07/30 04:12:29;;;;;;;3.35;2.40;;;21.10;99.90;;;;;;7388659;19;20151;-78
2022/07/30 04:14:56;;;;;;;5.18;2.10;;;21.00;99.90;;;;;;7383898;19;20142;-78
2022/07/30 04:17:28;;;;;;;2.88;2.47;;;21.10;99.90;;;;;;7387954;19;20249;-79
2022/07/30 04:20:00;;;;;;;3.65;2.17;;;21.10;99.90;;;;;;7385508;19;20600;-77
2022/07/30 04:22:30;;;;;;;2.50;2.30;;;21.00;99.90;;;;;;7388069;19;20160;-79
2022/07/30 04:24:58;;;;;;;5.63;3.10;;;21.20;99.90;;;;;;7389341;19;20138;-78
2022/07/30 04:27:25;;;;;;;3.47;2.20;;;21.30;99.90;;;;;;7386884;19;20612;-80
2022/07/30 04:29:55;;;;;;;3.38;2.85;;;21.40;99.90;;;;;;7384146;19;20145;-79
2022/07/30 04:32:21;;;;;;;5.50;2.97;;;21.30;99.90;;;;;;7386217;19;20138;-79
2022/07/30 04:34:52;;;;;;;3.67;2.47;;;21.10;99.90;;;;;;7383808;19;20213;-80
2022/07/30 04:37:20;;;;;;;5.32;2.53;;;20.90;99.90;;;;;;7385921;19;20673;-79
2022/07/30 04:39:48;;;;;;;3.17;2.42;;;20.90;99.90;;;;;;7386312;19;20553;-79
2022/07/30 04:42:15;;;;;;;3.60;2.15;;;20.90;99.90;;;;;;7387052;19;20151;-80
2022/07/30 04:44:41;;;;;;;3.00;2.25;;;21.00;99.90;;;;;;7386594;19;20134;-79
2022/07/30 04:47:07;;;;;;;2.75;2.30;;;21.00;99.90;;;;;;7389546;19;20138;-79
2022/07/30 04:49:34;;;;;;;3.90;2.08;;;21.00;99.90;;;;;;7386455;19;20588;-79
2022/07/30 04:52:01;;;;;;;3.08;2.30;;;21.00;99.90;;;;;;7386472;19;20227;-79
2022/07/30 04:54:35;;;;;;;3.28;2.13;;;21.00;99.90;;;;;;7384661;19;20151;-79
2022/07/30 04:57:00;;;;;;;3.10;2.10;;;21.00;99.90;;;;;;7389014;19;20205;-79
2022/07/30 04:59:26;;;;;;;3.45;2.30;;;20.90;99.90;;;;;;7388586;19;20131;-78
2022/07/30 05:01:56;;;;;;;2.38;1.90;;;20.80;99.90;;;;;;7386332;19;20629;-77
2022/07/30 05:04:23;;;;;;;5.97;2.25;;;20.80;99.90;;;;;;7384293;19;20143;-77
2022/07/30 05:06:50;;;;;;;2.33;2.13;;;20.70;99.90;;;;;;7383780;19;20135;-77
2022/07/30 05:09:16;;;;;;;2.65;2.08;;;20.80;99.90;;;;;;7385660;19;20163;-75
2022/07/30 05:11:50;;;;;;;5.03;2.60;;;20.80;99.90;;;;;;7385032;19;20135;-77
2022/07/30 05:14:15;;;;;;;6.28;2.67;;;20.90;99.90;;;;;;7383116;19;20263;-77
2022/07/30 05:16:41;;;;;;;3.17;2.22;;;20.90;99.90;;;;;;7387431;19;20119;-77
2022/07/30 05:19:07;;;;;;;2.35;2.05;;;20.90;99.90;;;;;;7383242;19;20154;-77
2022/07/30 05:21:32;;;;;;;5.28;2.58;;;21.00;99.90;;;;;;7386330;19;20170;-76
2022/07/30 05:23:58;;;;;;;3.35;2.35;;;21.10;99.90;;;;;;7385741;19;20146;-76
2022/07/30 05:26:24;;;;;;;3.97;2.72;;;21.00;99.90;;;;;;7392091;19;20150;-77
2022/07/30 05:28:50;;;;;;;2.83;2.30;;;21.00;99.90;;;;;;7393552;19;20144;-77
2022/07/30 05:31:15;;;;;;;2.95;2.35;;;20.90;99.90;;;;;;7393917;19;20502;-76
2022/07/30 05:33:41;;;;;;;4.65;2.40;;;20.90;99.90;;;;;;7389195;19;20628;-77
2022/07/30 05:36:07;;;;;;;3.35;2.45;;;20.90;99.90;;;;;;7394716;19;20139;-77
2022/07/30 05:38:34;;;;;;;3.33;1.88;;;21.00;99.90;;;;;;7391493;19;20170;-78
2022/07/30 05:41:00;;;;;;;3.83;2.47;;;21.00;99.90;;;;;;7392033;19;20138;-77
2022/07/30 05:43:25;;;;;;;3.75;2.55;;;21.10;99.90;;;;;;7395341;19;20149;-77
2022/07/30 05:45:51;;;;;;;2.80;2.35;;;21.20;99.90;;;;;;7390940;19;20134;-77
2022/07/30 05:48:17;;;;;;;3.75;2.80;;;21.20;99.90;;;;;;7393695;19;20171;-78
2022/07/30 05:50:42;;;;;;;4.18;2.90;;;21.20;99.90;;;;;;7388780;19;20131;-79
2022/07/30 05:53:08;;;;;;;3.47;2.30;;;21.20;99.90;;;;;;7390540;19;20139;-79
2022/07/30 05:55:34;;;;;;;2.47;2.28;;;21.30;99.90;;;;;;7391626;19;20568;-77
2022/07/30 05:58:00;;;;;;;3.13;2.35;;;21.30;99.90;;;;;;7390878;19;20138;-78
2022/07/30 06:00:25;;;;;;;4.20;2.83;;;21.20;99.90;;;;;;7389706;19;20162;-77
2022/07/30 06:02:51;;;;;;;3.10;2.60;;;21.30;99.90;;;;;;7394833;19;20294;-78
2022/07/30 06:05:17;;;;;;;3.10;2.60;;;21.40;99.90;;;;;;7389439;19;20174;-79
2022/07/30 06:07:43;;;;;;;4.18;2.42;;;21.40;99.90;;;;;;7389492;19;20167;-79
2022/07/30 06:10:09;;;;;;;3.78;2.42;;;21.40;99.90;;;;;;7390988;19;20142;-77
2022/07/30 06:12:34;;;;;;;8.05;2.70;;;21.30;99.90;;;;;;7393853;19;20138;-77
2022/07/30 06:15:00;;;;;;;3.20;2.40;;;21.30;99.90;;;;;;7387374;19;20150;-77
2022/07/30 06:17:26;;;;;;;3.65;2.50;;;21.40;99.90;;;;;;7392743;19;20134;-76
2022/07/30 06:19:52;;;;;;;3.03;2.40;;;21.50;99.90;;;;;;7389520;19;20150;-78
2022/07/30 06:22:18;;;;;;;3.38;2.42;;;21.60;99.90;;;;;;7389252;19;20211;-78
2022/07/30 06:24:43;;;;;;;3.55;2.45;;;21.60;99.90;;;;;;7387783;19;20135;-78
2022/07/30 06:27:09;;;;;;;4.00;2.53;;;21.90;99.90;;;;;;7389500;19;20161;-77
2022/07/30 06:29:36;;;;;;;5.88;2.88;;;21.90;99.90;;;;;;7392843;19;20198;-77
2022/07/30 06:32:02;;;;;;;3.08;2.30;;;22.10;99.90;;;;;;7388958;19;20151;-77
2022/07/30 06:34:28;;;;;;;5.30;2.22;;;22.60;99.90;;;;;;7388867;19;20143;-74
2022/07/30 06:36:53;;;;;;;3.83;2.30;;;23.60;99.90;;;;;;7387186;19;20153;-75
2022/07/30 06:39:19;;;;;;;2.75;2.10;;;24.50;99.90;;;;;;7392181;19;20142;-74
2022/07/30 06:41:45;;;;;;;2.33;2.10;;;25.30;99.90;;;;;;7390490;19;20131;-74
2022/07/30 06:44:11;;;;;;;4.97;2.20;;;25.90;99.90;;;;;;7392720;19;20155;-74
2022/07/30 06:46:37;;;;;;;3.42;2.00;;;26.50;99.90;;;;;;7390583;19;20135;-75
2022/07/30 06:49:03;;;;;;;2.58;2.17;;;26.80;99.90;;;;;;7389372;19;20167;-75
2022/07/30 06:51:28;;;;;;;2.55;2.10;;;26.90;99.80;;;;;;7389215;19;20147;-75
2022/07/30 06:53:54;;;;;;;3.22;2.58;;;27.20;99.30;;;;;;7388569;19;20151;-76
2022/07/30 06:56:20;;;;;;;4.65;2.25;;;26.80;98.50;;;;;;7390371;19;20131;-76
2022/07/30 06:58:46;;;;;;;2.97;2.13;;;26.30;98.90;;;;;;7390165;19;20163;-75
2022/07/30 07:01:12;;;;;;;2.70;2.35;;;26.00;99.90;;;;;;7388276;19;20138;-74
2022/07/30 07:03:38;;;;;;;8.98;2.97;;;26.20;99.40;;;;;;7389358;19;20138;-74
2022/07/30 07:06:04;;;;;;;4.82;2.40;;;26.50;99.30;;;;;;7390170;19;20150;-75
2022/07/30 07:08:30;;;;;;;2.85;2.53;;;26.60;98.90;;;;;;7387489;19;20146;-74
2022/07/30 07:10:56;;;;;;;4.15;2.88;;;27.00;98.80;;;;;;7388931;19;20143;-74
2022/07/30 07:13:22;;;;;;;7.03;2.70;;;27.20;97.60;;;;;;7387164;19;20824;-75
2022/07/30 07:15:48;;;;;;;4.05;2.60;;;27.20;97.60;;;;;;7387201;19;20162;-75
2022/07/30 07:18:14;;;;;;;3.35;2.40;;;27.30;97.40;;;;;;7386832;19;20138;-75
2022/07/30 07:20:42;;;;;;;3.13;2.83;;;27.70;97.60;;;;;;7386834;19;20149;-75
2022/07/30 07:23:08;;;;;;;5.68;3.00;;;27.60;96.40;;;;;;7386482;19;20145;-75
2022/07/30 07:25:34;;;;;;;5.07;2.88;;;27.00;97.00;;;;;;7387227;19;20506;-75
2022/07/30 07:27:59;;;;;;;6.07;3.10;;;26.50;97.30;;;;;;7385205;19;20147;-75
2022/07/30 07:30:25;;;;;;;4.13;2.95;;;27.00;97.40;;;;;;7386099;19;20198;-75
2022/07/30 07:32:51;;;;;;;3.22;2.85;;;26.90;96.80;;;;;;7389251;19;20138;-75
2022/07/30 07:35:17;;;;;;;4.53;2.75;;;26.70;96.40;;;;;;7387225;19;20127;-76
2022/07/30 07:37:42;;;;;;;3.78;2.50;;;26.60;96.50;;;;;;7389770;19;20209;-76
2022/07/30 07:40:09;;;;;;;4.10;2.67;;;26.90;96.20;;;;;;7388047;19;20142;-75
2022/07/30 07:42:34;;;;;;;5.28;2.70;;;26.90;96.40;;;;;;7387328;19;20158;-74
2022/07/30 07:45:00;;;;;;;5.45;2.35;;;27.00;96.00;;;;;;7388023;19;20135;-75
2022/07/30 07:47:26;;;;;;;5.15;2.13;;;27.10;96.00;;;;;;7385670;19;20146;-75
2022/07/30 07:49:55;;;;;;;3.67;1.77;;;27.10;95.90;;;;;;7387501;19;20153;-75
2022/07/30 07:52:21;;;;;;;4.28;2.50;;;27.50;95.80;;;;;;7383731;19;20596;-75
2022/07/30 07:54:47;;;;;;;4.90;2.50;;;27.90;94.90;;;;;;7389549;19;20164;-74
2022/07/30 07:57:12;;;;;;;2.70;1.88;;;28.00;94.60;;;;;;7385710;19;20134;-75
2022/07/30 07:59:38;;;;;;;2.20;1.90;;;28.30;93.80;;;;;;7383385;19;20137;-75
2022/07/30 08:02:04;;;;;;;3.78;2.20;;;28.90;93.70;;;;;;7382913;19;20145;-74
2022/07/30 08:04:30;;;;;;;2.58;1.58;;;29.10;92.70;;;;;;7386241;19;20689;-75
2022/07/30 08:06:55;;;;;;;4.45;2.10;;;29.20;92.70;;;;;;7385033;19;20196;-78
2022/07/30 08:09:21;;;;;;;2.90;2.03;;;29.30;92.50;;;;;;7383706;19;20518;-78
2022/07/30 08:11:47;;;;;;;3.83;2.20;;;29.40;92.00;;;;;;7385442;19;20383;-77
2022/07/30 08:14:13;;;;;;;4.28;2.33;;;29.30;92.10;;;;;;7385539;19;20463;-78
2022/07/30 08:16:39;;;;;;;2.00;1.75;;;29.20;91.80;;;;;;7387109;19;20164;-78
2022/07/30 08:19:04;;;;;;;3.08;2.05;;;28.30;90.60;;;;;;7387850;19;20126;-77
2022/07/30 08:21:30;;;;;;;2.00;1.70;;;28.10;91.30;;;;;;7388273;19;20161;-81
2022/07/30 08:23:56;;;;;;;2.35;1.88;;;28.20;91.20;;;;;;7391255;19;20907;-78
2022/07/30 08:26:22;;;;;;;3.00;2.00;;;28.20;90.80;;;;;;7384861;19;20154;-81
2022/07/30 08:28:47;;;;;;;3.72;2.20;;;27.50;91.20;;;;;;7388041;19;20136;-79
2022/07/30 08:31:13;;;;;;;4.82;2.88;;;26.90;91.80;;;;;;7385164;19;20150;-77
2022/07/30 08:33:39;;;;;;;4.10;1.98;;;26.70;92.40;;;;;;7386817;19;20138;-79
2022/07/30 08:36:05;;;;;;;3.55;1.90;;;27.00;92.30;;;;;;7389734;19;20643;-79
2022/07/30 08:38:31;;;;;;;2.83;1.90;;;27.30;92.00;;;;;;7390403;19;20146;-80
2022/07/30 08:40:57;;;;;;;6.97;1.90;;;27.30;91.70;;;;;;7391736;19;20564;-79
2022/07/30 08:43:25;;;;;;;4.53;2.00;;;27.50;91.80;;;;;;7389063;19;20244;-79
2022/07/30 08:45:52;;;;;;;3.72;1.75;;;27.90;91.30;;;;;;7387961;19;20134;-76
2022/07/30 08:48:21;;;;;;;2.30;1.52;;;28.20;90.40;;;;;;7385664;19;20138;-80
2022/07/30 08:50:47;;;;;;;3.33;1.90;;;28.10;90.40;;;;;;7384549;19;20637;-78
2022/07/30 08:53:14;;;;;;;3.35;1.90;;;27.60;90.30;;;;;;7386019;19;20297;-77
2022/07/30 08:55:40;;;;;;;3.38;2.20;;;27.30;90.30;;;;;;7382842;19;20178;-78
2022/07/30 08:58:26;;;;;;;3.95;1.65;;;27.00;90.30;;;;;;7387809;19;20221;-77
2022/07/30 09:00:52;;;;;;;2.88;1.80;;;26.70;91.00;;;;;;7389030;19;20150;-78
2022/07/30 09:03:18;;;;;;;2.70;1.70;;;26.70;91.00;;;;;;7388919;19;20143;-80
2022/07/30 09:05:45;;;;;;;2.38;1.63;;;26.60;91.30;;;;;;7383709;19;20410;-80
2022/07/30 09:08:11;;;;;;;3.58;1.60;;;26.60;91.40;;;;;;7396360;19;20415;-79
2022/07/30 09:10:37;;;;;;;4.25;1.70;;;26.80;91.20;;;;;;7390813;19;20150;-79
2022/07/30 09:13:03;;;;;;;3.00;1.70;;;27.00;90.90;;;;;;7394501;19;20589;-80
2022/07/30 09:15:28;;;;;;;3.92;2.00;;;27.30;90.90;;;;;;7390147;19;20267;-79
2022/07/30 09:17:56;;;;;;;6.13;1.67;;;27.30;91.00;;;;;;7393798;19;20155;-81
2022/07/30 09:20:25;;;;;;;3.10;2.00;;;27.20;90.60;;;;;;7393331;19;20151;-79
2022/07/30 09:23:03;;;;;;;2.55;1.80;;;27.00;90.60;;;;;;7391918;19;20158;-78
2022/07/30 09:25:40;;;;;;;3.17;1.90;;;26.60;90.80;;;;;;7396564;19;20145;-79
2022/07/30 09:28:10;;;;;;;2.80;2.10;;;26.30;91.20;;;;;;7391227;19;20150;-80
2022/07/30 09:30:52;;;;;;;3.83;1.90;;;26.00;91.80;;;;;;7394446;19;20604;-77
2022/07/30 09:33:30;;;;;;;2.13;1.67;;;25.90;92.30;;;;;;7394236;19;20163;-77
2022/07/30 09:35:56;;;;;;;3.92;2.10;;;26.00;92.30;;;;;;7396621;19;20142;-78
2022/07/30 09:38:22;;;;;;;2.40;1.73;;;26.00;92.50;;;;;;7395776;19;20159;-80
2022/07/30 09:40:52;;;;;;;3.25;1.55;;;26.20;92.30;;;;;;7394867;19;20135;-78
2022/07/30 09:43:18;;;;;;;3.17;1.52;;;26.40;92.00;;;;;;7395543;19;20537;-78
2022/07/30 09:45:54;;;;;;;2.42;1.40;;;26.70;92.10;;;;;;7394957;19;20537;-78
2022/07/30 09:48:21;;;;;;;2.50;1.70;;;26.60;92.00;;;;;;7396058;19;20252;-79
2022/07/30 09:50:49;;;;;;;2.70;1.80;;;26.40;92.10;;;;;;7393514;19;20133;-77
2022/07/30 09:53:14;;;;;;;3.95;1.80;;;26.30;92.00;;;;;;7395417;19;20139;-78
2022/07/30 09:55:40;;;;;;;2.50;1.80;;;26.20;91.20;;;;;;7391380;19;20153;-79
2022/07/30 09:58:06;;;;;;;4.25;1.50;;;26.20;91.20;;;;;;7394433;19;20157;-78
2022/07/30 10:00:36;;;;;;;2.50;1.60;;;26.00;91.60;;;;;;7393027;19;20130;-75
2022/07/30 10:03:18;;;;;;;1.70;1.48;;;26.00;91.60;;;;;;7393500;19;20617;-78
2022/07/30 10:05:56;;;;;;;1.75;1.27;;;26.10;91.50;;;;;;7392603;19;20147;-78
2022/07/30 10:08:43;;;;;;;2.10;1.38;;;26.20;91.50;;;;;;7392575;19;20138;-79
2022/07/30 10:11:12;;;;;;;2.88;1.67;;;26.50;91.50;;;;;;7390947;19;20143;-78
2022/07/30 10:13:38;;;;;;;1.50;1.40;;;26.70;91.00;;;;;;7397773;19;20206;-77
2022/07/30 10:16:05;;;;;;;5.15;1.55;;;26.90;90.90;;;;;;7393443;19;20379;-78
2022/07/30 10:18:32;;;;;;;3.15;1.60;;;27.10;90.10;;;;;;7393074;19;20197;-78
2022/07/30 10:21:00;;;;;;;2.22;1.50;;;27.00;89.10;;;;;;7391656;19;20817;-77
2022/07/30 10:23:31;;;;;;;2.35;1.42;;;26.60;89.40;;;;;;7393721;19;20146;-79
2022/07/30 10:26:00;;;;;;;2.55;1.40;;;26.40;89.40;;;;;;7391427;19;20631;-79
2022/07/30 10:28:28;;;;;;;3.45;1.35;;;26.30;89.60;;;;;;7391377;19;20139;-78
2022/07/30 10:30:56;;;;;;;3.80;1.42;;;26.30;90.10;;;;;;7391748;19;20140;-77
2022/07/30 10:33:24;;;;;;;1.63;1.30;;;26.60;90.40;;;;;;7392317;19;20135;-78
2022/07/30 10:35:49;;;;;;;2.72;1.30;;;26.80;90.00;;;;;;7392838;19;20134;-78
2022/07/30 10:38:17;;;;;;;1.75;1.33;;;26.90;88.50;;;;;;7393628;19;20166;-81
2022/07/30 10:41:01;;;;;;;2.88;1.27;;;26.80;88.80;;;;;;7390074;19;20135;-78
2022/07/30 10:43:51;;;;;;;12.98;7.75;;;26.90;88.30;;;;;;7392732;19;20145;-75
2022/07/30 10:46:35;;;;;;;2.28;1.60;;;27.00;88.50;;;;;;7394012;19;20143;-76
2022/07/30 10:49:13;;;;;;;1.77;1.52;;;27.20;89.10;;;;;;7391949;19;20633;-78
2022/07/30 10:51:51;;;;;;;2.83;1.33;;;27.40;88.70;;;;;;7391196;19;20160;-79
2022/07/30 10:54:32;;;;;;;1.58;1.42;;;27.60;88.60;;;;;;7389172;19;20154;-79
2022/07/30 10:57:14;;;;;;;1.73;1.30;;;27.80;87.40;;;;;;7392122;19;20142;-79
2022/07/30 10:59:54;;;;;;;1.80;1.40;;;27.70;86.70;;;;;;7389995;19;20194;-77
2022/07/30 11:02:21;;;;;;;1.98;1.48;;;27.50;86.50;;;;;;7387650;19;20205;-76
2022/07/30 11:04:48;;;;;;;2.20;1.52;;;27.30;87.40;;;;;;7388313;19;20206;-85
2022/07/30 11:07:20;;;;;;;2.97;1.60;;;27.10;87.10;;;;;;7384898;19;20147;-83
2022/07/30 11:09:47;;;;;;;3.13;1.42;;;27.00;88.00;;;;;;7387144;19;20146;-84
2022/07/30 11:12:13;;;;;;;2.90;1.58;;;27.00;87.80;;;;;;7391883;19;20149;-85
2022/07/30 11:14:45;;;;;;;4.40;1.70;;;27.00;88.00;;;;;;7388179;19;20593;-83
2022/07/30 11:17:20;;;;;;;1.50;1.30;;;27.00;86.70;;;;;;7390057;19;20146;-82
2022/07/30 11:20:05;;;;;;;1.33;1.00;;;27.10;86.90;;;;;;7390868;19;20231;-83
2022/07/30 11:22:39;;;;;;;2.17;1.30;;;27.20;88.00;;;;;;7391855;19;20151;-81
2022/07/30 11:25:20;;;;;;;1.30;1.20;;;27.20;87.70;;;;;;7389011;19;20931;-82
2022/07/30 11:27:49;;;;;;;1.92;1.30;;;27.10;87.50;;;;;;7388427;19;20236;-74
2022/07/30 11:30:14;;;;;;;2.13;1.70;;;26.90;86.50;;;;;;7386982;19;20161;-74
2022/07/30 11:32:42;;;;;;;1.95;1.55;;;26.60;86.30;;;;;;7388247;19;20139;-73
2022/07/30 11:35:21;;;;;;;2.85;1.20;;;26.50;88.00;;;;;;7389600;19;20159;-76
2022/07/30 11:38:14;;;;;;;2.25;1.45;;;26.50;87.40;;;;;;7386669;19;20138;-76
2022/07/30 11:40:46;;;;;;;2.42;1.10;;;26.70;87.20;;;;;;7386882;19;20155;-75
2022/07/30 11:43:16;;;;;;;3.75;1.20;;;26.90;86.70;;;;;;7389830;19;20146;-75
2022/07/30 11:45:43;;;;;;;3.53;1.48;;;27.00;86.00;;;;;;7390696;19;20514;-75
2022/07/30 11:48:11;;;;;;;1.65;1.20;;;27.20;86.50;;;;;;7390122;19;20575;-75
2022/07/30 11:50:38;;;;;;;1.27;1.17;;;27.40;85.40;;;;;;7387599;19;20624;-73
2022/07/30 11:53:23;;;;;;;3.33;1.42;;;27.50;85.80;;;;;;7390557;19;20139;-74
2022/07/30 11:55:56;;;;;;;3.40;1.63;;;27.60;84.20;;;;;;7387124;19;20610;-74
2022/07/30 11:58:28;;;;;;;3.55;1.45;;;27.60;86.00;;;;;;7392225;19;20604;-74
2022/07/30 12:00:57;;;;;;;2.03;1.30;;;27.70;85.80;;;;;;7388272;19;20148;-75
2022/07/30 12:03:25;;;;;;;2.47;1.40;;;27.80;85.60;;;;;;7392039;19;20502;-74
2022/07/30 12:05:51;;;;;;;2.67;1.30;;;27.80;83.00;;;;;;7390591;19;20461;-74
2022/07/30 12:08:17;;;;;;;1.92;1.20;;;27.70;84.20;;;;;;7389823;19;20142;-75
2022/07/30 12:10:55;;;;;;;2.63;1.20;;;27.70;83.40;;;;;;7388858;19;20199;-75
2022/07/30 12:13:20;;;;;;;1.15;1.05;;;27.60;83.60;;;;;;7390649;19;20226;-75
2022/07/30 12:15:47;;;;;;;2.38;1.65;;;27.60;83.20;;;;;;7386601;19;20169;-73
2022/07/30 12:18:26;;;;;;;1.30;1.00;;;27.40;82.70;;;;;;7390711;19;20303;-75
2022/07/30 12:21:02;;;;;;;2.55;1.75;;;27.40;82.90;;;;;;7387544;19;20151;-74
2022/07/30 12:23:30;;;;;;;3.58;1.38;;;27.60;82.80;;;;;;7388965;19;20136;-74
2022/07/30 12:25:57;;;;;;;2.83;1.45;;;27.80;82.10;;;;;;7386813;19;20206;-74
2022/07/30 12:28:26;;;;;;;1.13;1.02;;;27.80;84.80;;;;;;7386830;19;20150;-74
2022/07/30 12:30:53;;;;;;;1.27;1.15;;;28.00;81.50;;;;;;7390189;19;20549;-75
2022/07/30 12:33:19;;;;;;;3.63;1.23;;;28.10;81.10;;;;;;7389743;19;20146;-74
2022/07/30 12:35:56;;;;;;;2.03;1.55;;;28.00;81.70;;;;;;7392699;19;20149;-75
2022/07/30 12:38:23;;;;;;;2.65;1.20;;;28.10;80.70;;;;;;7397453;19;20142;-75
2022/07/30 12:41:01;;;;;;;3.05;1.40;;;28.20;80.00;;;;;;7396333;19;20146;-75
2022/07/30 12:43:43;;;;;;;1.20;1.10;;;28.10;81.00;;;;;;7394905;19;20563;-74
2022/07/30 12:46:09;;;;;;;1.25;1.05;;;28.10;80.10;;;;;;7395667;19;20232;-74
2022/07/30 12:48:35;;;;;;;2.22;1.20;;;28.00;79.70;;;;;;7394936;19;20171;-76
2022/07/30 12:51:09;;;;;;;2.88;1.42;;;28.10;80.20;;;;;;7397492;19;20139;-75
2022/07/30 12:53:35;;;;;;;2.83;1.50;;;28.20;82.30;;;;;;7396762;19;20155;-74